Time;durP1;ratioP1;P1;durP2;ratioP2;P2;SDS_P1;SDS_P2;PMS_P1;PMS_P2;Temp;Humidity;BMP_temperature;BMP_pressure;BME280_temperature;BME280_humidity;BME280_pressure;Samples;Min_cycle;Max_cycle;Signal;HPM_P1;HPM_P2
2022/11/20 00:01:44;;;;;;;4.70;4.20;;;;;;;5.13;90.09;95011.38;4977338;28;20720;-82
2022/11/20 00:04:11;;;;;;;6.27;4.57;;;;;;;5.15;89.92;95014.63;4966320;28;20193;-81
2022/11/20 00:06:36;;;;;;;6.90;3.90;;;;;;;4.97;91.54;95008.41;4976550;28;20193;-83
2022/11/20 00:09:02;;;;;;;6.00;3.77;;;;;;;5.06;91.48;95011.03;4977529;28;20189;-83
2022/11/20 00:11:28;;;;;;;4.33;3.93;;;;;;;5.07;91.36;95017.00;4974325;28;20192;-83
2022/11/20 00:13:57;;;;;;;5.20;4.20;;;;;;;5.07;91.25;95012.69;4972939;28;20212;-82
2022/11/20 00:16:23;;;;;;;5.03;4.07;;;;;;;5.00;91.27;95014.13;4947873;28;20192;-82
2022/11/20 00:18:49;;;;;;;5.03;3.80;;;;;;;4.88;91.24;95011.75;4970159;28;20181;-83
2022/11/20 00:21:25;;;;;;;5.03;4.07;;;;;;;4.98;90.85;95015.19;4965889;28;20689;-83
2022/11/20 00:23:53;;;;;;;6.00;3.80;;;;;;;4.87;90.90;95010.94;4977436;28;20195;-82
2022/11/20 00:26:20;;;;;;;3.90;3.33;;;;;;;4.80;91.50;95013.19;4979242;28;20235;-80
2022/11/20 00:28:56;;;;;;;6.07;3.80;;;;;;;4.66;90.99;95018.63;4999519;28;20224;-81
2022/11/20 00:31:21;;;;;;;3.60;3.20;;;;;;;4.68;90.49;95018.50;4995643;28;20176;-81
2022/11/20 00:33:47;;;;;;;6.97;3.30;;;;;;;4.79;90.16;95019.28;5000042;28;20187;-81
2022/11/20 00:36:23;;;;;;;4.50;3.43;;;;;;;4.69;90.99;95008.13;4990097;28;20184;-81
2022/11/20 00:38:57;;;;;;;4.10;3.47;;;;;;;4.69;91.46;95015.84;4996612;28;20207;-81
2022/11/20 00:41:23;;;;;;;5.57;3.30;;;;;;;4.54;91.88;95011.91;4977875;28;20236;-82
2022/11/20 00:43:48;;;;;;;5.07;3.30;;;;;;;4.60;91.91;95013.19;4952703;28;20260;-83
2022/11/20 00:46:15;;;;;;;5.77;4.30;;;;;;;4.48;92.30;95007.25;4982628;28;20216;-83
2022/11/20 00:48:41;;;;;;;6.43;3.90;;;;;;;4.49;92.05;95012.28;4979176;28;20181;-82
2022/11/20 00:51:07;;;;;;;7.27;4.20;;;;;;;4.50;92.18;95008.75;4955131;28;20192;-81
2022/11/20 00:53:32;;;;;;;4.90;3.77;;;;;;;4.50;91.78;95021.63;4981413;28;20603;-83
2022/11/20 00:56:00;;;;;;;6.33;3.40;;;;;;;4.59;91.74;95022.63;4978685;28;20191;-82
2022/11/20 00:58:32;;;;;;;4.00;3.43;;;;;;;4.70;90.82;95021.78;4998652;28;20194;-81
2022/11/20 01:01:07;;;;;;;4.40;3.70;;;;;;;4.47;92.24;95024.44;4962086;28;20215;-80
2022/11/20 01:03:34;;;;;;;3.93;3.33;;;;;;;4.44;91.93;95018.75;4978651;28;20706;-81
2022/11/20 01:06:24;;;;;;;3.63;3.20;;;;;;;4.45;92.15;95023.75;4970877;28;20281;-81
2022/11/20 01:08:52;;;;;;;3.83;3.07;;;;;;;4.37;92.13;95018.41;4969600;28;20223;-81
2022/11/20 01:11:20;;;;;;;4.80;3.63;;;;;;;4.29;92.65;95019.97;4966857;28;20656;-82
2022/11/20 01:13:47;;;;;;;4.30;3.53;;;;;;;4.33;92.82;95013.63;4966159;28;20185;-82
2022/11/20 01:16:15;;;;;;;3.77;3.40;;;;;;;4.21;93.28;95023.13;4969613;28;20197;-82
2022/11/20 01:18:43;;;;;;;4.03;3.20;;;;;;;4.21;92.88;95021.38;4950041;28;20192;-82
2022/11/20 01:21:11;;;;;;;3.93;3.33;;;;;;;4.15;93.21;95013.34;4977611;28;20225;-83
2022/11/20 01:23:38;;;;;;;5.23;3.10;;;;;;;4.20;93.41;95017.19;4981723;28;20291;-82
2022/11/20 01:26:05;;;;;;;5.37;3.40;;;;;;;4.25;93.16;95015.06;4979993;28;20198;-83
2022/11/20 01:28:31;;;;;;;4.70;3.27;;;;;;;4.32;92.90;95014.56;4979249;28;20577;-83
2022/11/20 01:30:57;;;;;;;4.33;3.17;;;;;;;4.43;92.43;95017.94;4978112;28;20181;-83
2022/11/20 01:33:22;;;;;;;3.73;3.20;;;;;;;4.53;91.92;95012.88;4976827;28;20726;-83
2022/11/20 01:35:47;;;;;;;4.50;3.20;;;;;;;4.55;91.93;95016.13;4978570;28;20187;-83
2022/11/20 01:38:12;;;;;;;5.27;3.07;;;;;;;4.49;92.32;95011.47;4962755;28;20517;-83
2022/11/20 01:40:38;;;;;;;5.07;3.30;;;;;;;4.48;92.01;95012.41;4956421;28;20196;-81
2022/11/20 01:43:22;;;;;;;5.17;3.90;;;;;;;4.49;92.22;95007.13;4971882;28;20206;-84
2022/11/20 01:45:56;;;;;;;5.87;3.23;;;;;;;4.54;91.80;95005.03;4967450;28;20247;-82
2022/11/20 01:48:22;;;;;;;3.83;3.20;;;;;;;4.41;92.73;95006.13;4982226;28;20187;-83
2022/11/20 01:50:48;;;;;;;4.80;3.73;;;;;;;4.28;93.85;95013.19;4959130;28;20203;-82
2022/11/20 01:53:15;;;;;;;4.73;3.20;;;;;;;4.37;93.48;95012.47;4947895;28;20212;-83
2022/11/20 01:55:44;;;;;;;4.53;3.73;;;;;;;4.33;93.96;95017.03;4964569;28;20558;-82
2022/11/20 01:58:10;;;;;;;4.80;4.00;;;;;;;4.40;93.74;95012.19;4961322;28;20276;-83
2022/11/20 02:00:35;;;;;;;3.43;3.13;;;;;;;4.46;93.27;95011.72;4950463;28;20239;-83
2022/11/20 02:03:04;;;;;;;4.03;3.63;;;;;;;4.43;93.54;95017.13;4972078;28;20216;-82
2022/11/20 02:05:39;;;;;;;5.90;4.00;;;;;;;4.52;93.48;95011.25;4959823;28;20196;-83
2022/11/20 02:08:05;;;;;;;3.97;3.20;;;;;;;4.48;93.47;95014.97;4963815;28;20192;-82
2022/11/20 02:10:31;;;;;;;4.10;3.50;;;;;;;4.53;93.46;95018.00;4984702;28;20188;-83
2022/11/20 02:15:41;;;;;;;7.03;4.10;;;;;;;4.62;93.55;95012.13;4968807;28;20207;-82
2022/11/20 02:18:06;;;;;;;6.27;4.07;;;;;;;4.56;93.75;95012.59;4974059;28;20604;-82
2022/11/20 02:20:32;;;;;;;4.10;3.33;;;;;;;4.68;93.47;95016.78;4942796;28;20200;-82
2022/11/20 02:23:01;;;;;;;4.57;4.13;;;;;;;4.69;93.58;95013.25;4974115;28;20216;-82
2022/11/20 02:25:27;;;;;;;4.93;3.90;;;;;;;4.58;93.39;95010.72;4970590;28;20219;-82
2022/11/20 02:27:53;;;;;;;5.37;4.60;;;;;;;4.70;93.30;95020.03;4965004;28;20311;-82
2022/11/20 02:30:18;;;;;;;4.90;4.03;;;;;;;4.76;92.69;95009.22;4970808;28;20195;-82
2022/11/20 02:32:43;;;;;;;7.03;4.00;;;;;;;4.68;93.42;95023.66;4972203;28;20276;-82
2022/11/20 02:35:30;;;;;;;6.00;4.30;;;;;;;4.74;93.18;95018.81;4963297;28;20197;-81
2022/11/20 02:37:59;;;;;;;4.30;3.90;;;;;;;4.71;93.88;95026.00;4980039;28;20280;-82
2022/11/20 02:40:24;;;;;;;5.43;4.20;;;;;;;4.77;93.47;95022.91;4973116;28;20278;-82
2022/11/20 02:42:53;;;;;;;5.47;3.87;;;;;;;4.76;93.95;95022.09;4964304;28;20690;-83
2022/11/20 02:45:19;;;;;;;4.17;3.77;;;;;;;4.80;93.53;95023.47;4987682;28;20185;-83
2022/11/20 02:47:44;;;;;;;5.77;3.80;;;;;;;4.84;93.52;95030.00;4980732;28;20611;-83
2022/11/20 02:50:09;;;;;;;6.47;4.50;;;;;;;4.88;92.89;95022.84;4978729;28;20249;-83
2022/11/20 02:52:35;;;;;;;6.60;4.40;;;;;;;4.88;93.09;95022.03;4951430;28;20209;-84
2022/11/20 02:55:00;;;;;;;4.10;3.50;;;;;;;4.82;93.00;95013.06;4977888;28;20569;-83
2022/11/20 02:57:25;;;;;;;5.47;4.50;;;;;;;4.79;92.90;95019.28;4977092;28;20228;-81
2022/11/20 02:59:50;;;;;;;4.90;3.67;;;;;;;4.69;93.05;95010.69;4976823;28;20201;-82
2022/11/20 03:02:16;;;;;;;4.20;3.43;;;;;;;4.58;93.62;95015.88;4949729;28;20224;-82
2022/11/20 03:04:41;;;;;;;5.10;4.33;;;;;;;4.57;93.39;95011.66;4973802;28;20188;-82
2022/11/20 03:07:08;;;;;;;4.63;3.97;;;;;;;4.54;93.64;95014.50;4972260;28;20208;-82
2022/11/20 03:09:33;;;;;;;4.40;3.77;;;;;;;4.39;94.23;95020.84;4956906;28;20192;-82
2022/11/20 03:11:58;;;;;;;5.43;4.07;;;;;;;4.55;93.76;95016.94;4951752;28;20703;-81
2022/11/20 03:14:24;;;;;;;3.87;3.53;;;;;;;4.64;93.52;95015.38;4973113;28;20287;-82
2022/11/20 03:16:49;;;;;;;3.57;3.27;;;;;;;4.69;92.99;95017.59;4972050;28;20700;-82
2022/11/20 03:19:14;;;;;;;5.20;4.00;;;;;;;4.72;92.99;95015.56;4971508;28;20197;-82
2022/11/20 03:21:39;;;;;;;5.70;4.03;;;;;;;4.76;93.05;95018.69;4956294;28;20235;-81
2022/11/20 03:24:05;;;;;;;6.30;3.30;;;;;;;4.80;93.57;95013.19;4965583;28;20211;-81
2022/11/20 03:26:30;;;;;;;4.47;3.77;;;;;;;4.81;93.48;95012.25;4980545;28;20184;-82
2022/11/20 03:28:58;;;;;;;3.90;3.20;;;;;;;4.84;93.73;95006.84;4960406;28;20196;-83
2022/11/20 03:31:25;;;;;;;4.40;3.50;;;;;;;4.89;93.83;95008.25;4955506;28;20212;-82
2022/11/20 03:33:51;;;;;;;5.97;3.70;;;;;;;4.73;95.01;95014.63;4962336;28;20188;-82
2022/11/20 03:36:18;;;;;;;3.93;3.63;;;;;;;4.79;94.92;95009.00;4964455;28;20332;-82
2022/11/20 03:38:44;;;;;;;3.77;3.37;;;;;;;4.74;94.95;95016.25;4972532;28;20291;-82
2022/11/20 03:41:12;;;;;;;5.40;3.50;;;;;;;4.77;94.73;95010.88;4973138;28;20299;-82
2022/11/20 03:43:37;;;;;;;3.80;3.40;;;;;;;4.88;94.09;95017.72;4964473;28;20215;-82
2022/11/20 03:46:03;;;;;;;3.97;3.57;;;;;;;4.90;94.20;95017.59;4964616;28;20189;-83
2022/11/20 03:48:29;;;;;;;5.37;3.80;;;;;;;4.97;93.78;95016.97;4986623;28;20180;-82
2022/11/20 03:51:14;;;;;;;5.70;3.37;;;;;;;4.90;94.11;95007.28;4955081;28;20202;-82
2022/11/20 03:53:41;;;;;;;4.17;2.90;;;;;;;4.99;93.40;95019.41;4963597;28;20199;-82
2022/11/20 03:56:07;;;;;;;5.63;3.30;;;;;;;4.89;93.53;95013.38;4957490;28;20236;-82
2022/11/20 03:58:35;;;;;;;3.60;3.30;;;;;;;4.98;92.81;95013.44;4990467;28;20261;-82
2022/11/20 04:01:08;;;;;;;4.20;3.70;;;;;;;5.04;92.94;95012.13;4985692;28;20220;-82
2022/11/20 04:03:35;;;;;;;3.20;2.90;;;;;;;4.92;93.25;95006.22;4975891;28;20195;-83
2022/11/20 04:06:03;;;;;;;3.90;2.60;;;;;;;4.84;92.98;95006.03;4981029;28;20209;-84
2022/11/20 04:08:28;;;;;;;4.37;3.23;;;;;;;4.90;92.87;95004.72;4982976;28;20562;-82
2022/11/20 04:10:54;;;;;;;3.37;3.07;;;;;;;4.83;93.20;95007.78;4973051;28;20189;-84
2022/11/20 04:13:19;;;;;;;3.27;2.97;;;;;;;4.96;92.19;95002.47;4982053;28;20212;-83
2022/11/20 04:15:44;;;;;;;5.27;3.10;;;;;;;4.88;92.39;95007.41;4968443;28;20193;-83
2022/11/20 04:18:09;;;;;;;3.90;3.03;;;;;;;5.01;92.13;95007.22;4975132;28;20206;-82
2022/11/20 04:20:35;;;;;;;3.63;2.87;;;;;;;4.96;92.12;94996.50;4950760;28;20200;-82
2022/11/20 04:23:00;;;;;;;4.03;2.70;;;;;;;4.88;92.48;95001.47;4964648;28;20732;-83
2022/11/20 04:25:25;;;;;;;5.10;3.00;;;;;;;5.04;92.05;94996.69;4962150;28;20708;-82
2022/11/20 04:27:51;;;;;;;5.30;2.60;;;;;;;5.03;92.33;94998.41;4967492;28;20196;-82
2022/11/20 04:30:16;;;;;;;4.03;2.70;;;;;;;5.02;91.89;94995.97;4972586;28;20244;-82
2022/11/20 04:32:41;;;;;;;3.03;2.60;;;;;;;4.96;92.05;94997.31;4959814;28;20583;-82
2022/11/20 04:35:07;;;;;;;3.40;2.40;;;;;;;5.02;91.20;94990.81;4967937;28;20196;-82
2022/11/20 04:37:32;;;;;;;2.87;2.17;;;;;;;5.11;90.98;94992.63;4970578;28;20200;-82
2022/11/20 04:39:57;;;;;;;3.10;2.70;;;;;;;5.22;90.53;94990.00;4975222;28;20671;-82
2022/11/20 04:42:28;;;;;;;2.97;2.53;;;;;;;5.22;90.46;94992.56;4946630;28;20217;-82
2022/11/20 04:44:53;;;;;;;2.93;2.57;;;;;;;5.25;90.49;94994.88;4967126;28;20185;-82
2022/11/20 04:47:18;;;;;;;3.87;3.00;;;;;;;5.28;90.46;94989.47;4973285;28;20189;-82
2022/11/20 04:49:44;;;;;;;5.57;2.90;;;;;;;5.13;90.74;94985.63;4974628;28;20661;-82
2022/11/20 04:52:09;;;;;;;3.57;2.50;;;;;;;5.13;90.96;94990.78;4966863;28;20196;-84
2022/11/20 04:54:34;;;;;;;3.83;2.70;;;;;;;5.22;90.84;94986.63;4952360;28;20248;-83
2022/11/20 04:56:59;;;;;;;2.40;2.20;;;;;;;5.31;90.49;94983.28;4974737;28;20188;-82
2022/11/20 04:59:25;;;;;;;2.70;2.50;;;;;;;5.24;90.61;94993.25;4972663;28;20578;-82
2022/11/20 05:01:50;;;;;;;4.57;2.47;;;;;;;5.15;91.20;94988.88;4967219;28;20213;-83
2022/11/20 05:04:15;;;;;;;2.60;2.00;;;;;;;5.14;91.01;94987.25;4974952;28;20258;-82
2022/11/20 05:06:41;;;;;;;3.00;2.63;;;;;;;5.07;91.31;94980.97;4973221;28;20588;-82
2022/11/20 05:09:06;;;;;;;3.87;2.37;;;;;;;5.21;90.92;94983.22;4973577;28;20203;-82
2022/11/20 05:11:31;;;;;;;2.50;2.00;;;;;;;5.09;91.37;94984.22;4977606;28;20197;-83
2022/11/20 05:13:58;;;;;;;2.93;2.40;;;;;;;5.14;91.28;94982.09;4959935;28;20195;-82
2022/11/20 05:16:24;;;;;;;3.17;2.00;;;;;;;5.17;90.81;94983.59;4960240;28;20668;-81
2022/11/20 05:18:50;;;;;;;2.87;2.50;;;;;;;5.05;91.10;94981.13;4965689;28;20192;-82
2022/11/20 05:21:16;;;;;;;2.30;2.10;;;;;;;5.10;91.50;94991.00;4973314;28;20224;-83
2022/11/20 05:23:42;;;;;;;2.70;1.73;;;;;;;5.08;90.96;94980.03;4974661;28;20208;-82
2022/11/20 05:26:11;;;;;;;3.13;1.67;;;;;;;5.17;90.83;94986.97;4979625;28;20184;-82
2022/11/20 05:28:36;;;;;;;1.63;1.53;;;;;;;5.13;91.30;94982.25;4961075;28;20199;-82
2022/11/20 05:31:05;;;;;;;1.80;1.70;;;;;;;5.13;91.41;94979.66;4947673;28;20192;-82
2022/11/20 05:33:31;;;;;;;1.77;1.67;;;;;;;5.22;90.94;94989.19;4972586;28;20554;-82
2022/11/20 05:36:00;;;;;;;2.70;1.93;;;;;;;5.13;90.72;94985.63;4973737;28;20239;-82
2022/11/20 05:38:25;;;;;;;1.90;1.70;;;;;;;5.17;91.19;94989.56;4968168;28;20291;-82
2022/11/20 05:40:50;;;;;;;1.33;1.23;;;;;;;5.11;90.75;94984.91;4972932;28;20227;-82
2022/11/20 05:43:16;;;;;;;2.13;1.30;;;;;;;5.23;90.72;94986.47;4972931;28;20735;-82
2022/11/20 05:45:41;;;;;;;2.17;1.53;;;;;;;5.15;91.23;94981.16;4959798;28;20189;-81
2022/11/20 05:48:06;;;;;;;1.40;1.30;;;;;;;5.07;91.20;94989.50;4956177;28;20185;-82
2022/11/20 05:50:31;;;;;;;1.47;1.37;;;;;;;5.07;90.67;94971.50;4959882;28;20220;-81
2022/11/20 05:53:00;;;;;;;1.37;1.27;;;;;;;5.05;90.86;94968.25;4949118;28;20743;-82
2022/11/20 05:55:26;;;;;;;2.03;1.30;;;;;;;5.14;90.84;94974.38;4973000;28;20664;-82
2022/11/20 05:57:53;;;;;;;1.43;1.33;;;;;;;4.99;90.89;94973.91;4973641;28;20181;-82
2022/11/20 06:00:19;;;;;;;2.00;1.20;;;;;;;4.98;91.54;94966.31;4966335;28;20180;-82
2022/11/20 06:02:44;;;;;;;1.47;1.37;;;;;;;5.14;91.25;94976.16;4976344;28;20612;-82
2022/11/20 06:05:09;;;;;;;3.07;1.80;;;;;;;5.11;90.45;94969.47;4972728;28;20549;-82
2022/11/20 06:07:34;;;;;;;3.13;2.47;;;;;;;5.03;90.99;94974.44;4972950;28;20239;-83
2022/11/20 06:10:00;;;;;;;1.63;1.50;;;;;;;5.18;90.44;94974.94;4971239;28;20195;-82
2022/11/20 06:12:25;;;;;;;1.80;1.40;;;;;;;5.05;90.63;94975.16;4957645;28;20209;-82
2022/11/20 06:14:50;;;;;;;2.00;1.33;;;;;;;5.07;90.74;94975.84;4944386;28;20193;-83
2022/11/20 06:17:16;;;;;;;1.67;1.20;;;;;;;5.15;90.60;94975.19;4965476;28;20212;-82
2022/11/20 06:19:41;;;;;;;1.50;1.30;;;;;;;5.29;89.84;94983.38;4944015;28;20571;-82
2022/11/20 06:22:06;;;;;;;1.37;1.20;;;;;;;5.26;90.06;94986.22;4944082;28;20239;-81
2022/11/20 06:24:31;;;;;;;1.00;0.90;;;;;;;5.17;90.49;94981.03;4974861;28;20196;-81
2022/11/20 06:26:57;;;;;;;2.60;1.20;;;;;;;5.20;89.91;94988.47;4965051;28;21035;-82
2022/11/20 06:29:22;;;;;;;1.20;1.07;;;;;;;5.23;90.14;94983.91;4943552;28;20197;-82
2022/11/20 06:31:47;;;;;;;2.17;1.20;;;;;;;5.34;89.47;94981.25;4957420;28;20233;-83
2022/11/20 06:34:13;;;;;;;1.10;1.10;;;;;;;5.29;89.67;94988.53;4971013;28;20960;-82
2022/11/20 06:36:38;;;;;;;2.07;1.37;;;;;;;5.33;89.57;94981.38;4968023;28;20188;-81
2022/11/20 06:39:03;;;;;;;1.40;1.30;;;;;;;5.37;89.45;94986.13;4971899;28;20190;-82
2022/11/20 06:41:29;;;;;;;1.90;1.40;;;;;;;5.28;89.76;94986.91;4960075;28;20289;-82
2022/11/20 06:43:54;;;;;;;1.53;1.43;;;;;;;5.24;89.92;94982.97;4990388;28;20177;-81
2022/11/20 06:46:20;;;;;;;1.57;1.33;;;;;;;5.34;89.45;94985.56;4990395;28;20260;-81
2022/11/20 06:48:47;;;;;;;1.33;1.20;;;;;;;5.24;89.49;94984.72;4987732;28;20177;-81
2022/11/20 06:51:12;;;;;;;1.37;1.27;;;;;;;5.24;89.48;94982.97;4990850;28;20183;-81
2022/11/20 06:53:38;;;;;;;4.57;1.33;;;;;;;5.20;89.21;94980.75;4991641;28;20201;-81
2022/11/20 06:56:04;;;;;;;2.03;1.37;;;;;;;5.35;89.11;94982.06;4969834;28;20227;-83
2022/11/20 06:58:31;;;;;;;3.77;1.53;;;;;;;5.41;88.85;94978.97;4967403;28;20211;-83
2022/11/20 07:01:07;;;;;;;1.70;1.43;;;;;;;5.22;88.71;94987.44;4952370;28;20193;-83
2022/11/20 07:03:33;;;;;;;1.40;1.30;;;;;;;5.21;88.92;94992.69;4958351;28;20684;-81
2022/11/20 07:05:59;;;;;;;1.40;1.30;;;;;;;5.30;88.26;94991.91;4971874;28;20189;-83
2022/11/20 07:08:25;;;;;;;1.93;1.30;;;;;;;5.37;88.96;95006.72;4962350;28;20188;-82
2022/11/20 07:10:50;;;;;;;2.27;1.40;;;;;;;5.30;89.40;94997.91;4963666;28;20193;-82
2022/11/20 07:13:16;;;;;;;4.67;2.07;;;;;;;5.29;88.83;95003.97;4956247;28;20586;-83
2022/11/20 07:15:41;;;;;;;8.87;4.37;;;;;;;5.29;89.39;94996.25;4958888;28;20682;-82
2022/11/20 07:18:07;;;;;;;4.30;2.83;;;;;;;5.23;89.17;95001.13;4947111;28;20221;-82
2022/11/20 07:20:32;;;;;;;5.07;3.23;;;;;;;5.46;88.96;95012.03;4972318;28;20188;-81
2022/11/20 07:22:58;;;;;;;7.53;4.63;;;;;;;5.20;89.78;95007.31;4973058;28;20707;-81
2022/11/20 07:25:25;;;;;;;2.10;1.70;;;;;;;5.18;89.80;95013.53;4981258;28;20196;-80
2022/11/20 07:27:50;;;;;;;2.73;2.40;;;;;;;5.16;89.25;95010.28;4965937;28;20184;-81
2022/11/20 07:30:16;;;;;;;1.60;0.80;;;;;;;5.37;89.32;95016.19;4970254;28;20247;-80
2022/11/20 07:32:41;;;;;;;1.17;1.07;;;;;;;5.34;88.54;95017.28;4960484;28;20291;-81
2022/11/20 07:35:07;;;;;;;1.47;1.20;;;;;;;5.29;89.04;95019.41;4969694;28;20192;-81
2022/11/20 07:37:35;;;;;;;1.40;1.00;;;;;;;5.22;89.03;95015.75;4971108;28;20267;-81
2022/11/20 07:40:01;;;;;;;0.87;0.80;;;;;;;5.17;88.38;95017.06;4972007;28;20189;-82
2022/11/20 07:42:26;;;;;;;1.80;1.20;;;;;;;5.15;89.03;95017.19;4969788;28;20224;-81
2022/11/20 07:44:51;;;;;;;0.90;0.90;;;;;;;5.18;88.42;95029.78;4970291;28;20196;-81
2022/11/20 07:47:17;;;;;;;1.57;1.10;;;;;;;5.21;88.10;95021.84;4972178;28;20688;-81
2022/11/20 07:49:42;;;;;;;1.47;1.20;;;;;;;5.21;88.36;95023.56;4972218;28;20227;-82
2022/11/20 07:52:07;;;;;;;0.83;0.83;;;;;;;5.31;87.84;95029.59;4962710;28;20205;-82
2022/11/20 07:54:33;;;;;;;1.10;1.00;;;;;;;5.27;88.70;95018.72;4956828;28;20200;-82
2022/11/20 07:56:58;;;;;;;0.80;0.77;;;;;;;5.20;89.42;95021.94;4955840;28;20379;-81
2022/11/20 07:59:23;;;;;;;1.73;0.90;;;;;;;5.06;91.07;95026.50;4959645;28;20184;-81
2022/11/20 08:01:48;;;;;;;1.77;1.10;;;;;;;4.95;92.03;95034.28;4949379;28;20220;-81
2022/11/20 08:04:15;;;;;;;1.27;1.10;;;;;;;5.17;91.43;95033.31;4970637;28;20231;-81
2022/11/20 08:06:41;;;;;;;1.17;1.00;;;;;;;5.13;92.00;95028.56;4969604;28;20615;-80
2022/11/20 08:09:06;;;;;;;1.43;1.20;;;;;;;5.30;91.75;95036.53;4971383;28;20271;-81
2022/11/20 08:14:15;;;;;;;1.70;1.23;;;;;;;5.31;92.98;95030.44;4955377;28;20203;-82
2022/11/20 08:16:44;;;;;;;1.97;1.50;;;;;;;5.05;94.75;95042.06;4969709;28;20212;-82
2022/11/20 08:19:09;;;;;;;2.03;1.43;;;;;;;5.22;94.56;95044.06;4971161;28;20220;-81
2022/11/20 08:21:34;;;;;;;1.77;1.57;;;;;;;5.32;94.23;95041.53;4967211;28;20232;-81
2022/11/20 08:24:00;;;;;;;2.37;1.67;;;;;;;5.29;94.59;95042.59;4942544;28;20638;-82
2022/11/20 08:26:26;;;;;;;1.57;1.47;;;;;;;5.12;95.94;95040.59;4972055;28;20195;-81
2022/11/20 08:28:55;;;;;;;1.43;1.33;;;;;;;4.92;97.71;95039.66;4973085;28;20641;-82
2022/11/20 08:31:21;;;;;;;2.87;2.10;;;;;;;5.18;96.61;95045.25;4969921;28;20608;-82
2022/11/20 08:33:46;;;;;;;2.33;2.23;;;;;;;5.30;96.79;95051.13;4948395;28;20196;-82
2022/11/20 08:36:12;;;;;;;1.60;1.50;;;;;;;5.38;96.31;95053.88;4972165;28;20662;-81
2022/11/20 08:38:37;;;;;;;1.67;1.30;;;;;;;5.32;97.16;95057.78;4971780;28;20205;-82
2022/11/20 08:44:07;;;;;;;1.93;1.73;;;;;;;5.32;97.17;95044.94;4967917;28;20199;-81
2022/11/20 08:46:36;;;;;;;5.13;2.97;;;;;;;5.48;97.11;95061.66;4941856;28;20662;-82
2022/11/20 08:49:02;;;;;;;6.30;3.80;;;;;;;5.49;96.31;95065.88;4960592;28;20196;-82
2022/11/20 08:51:27;;;;;;;1.87;1.67;;;;;;;5.46;96.19;95061.78;4966345;28;20199;-82
2022/11/20 08:53:53;;;;;;;4.97;3.27;;;;;;;5.65;94.54;95058.47;4963258;28;20185;-81
2022/11/20 08:56:19;;;;;;;1.10;1.00;;;;;;;5.52;94.21;95055.31;4975127;28;20879;-82
2022/11/20 08:58:44;;;;;;;4.07;2.93;;;;;;;5.50;93.75;95062.34;4958952;28;20195;-81
2022/11/20 09:01:10;;;;;;;3.93;2.00;;;;;;;5.38;94.50;95066.75;4967141;28;20259;-81
2022/11/20 09:03:35;;;;;;;6.23;4.37;;;;;;;5.56;94.82;95064.41;4960437;28;20217;-81
2022/11/20 09:06:02;;;;;;;8.90;5.53;;;;;;;5.56;95.28;95065.22;4942904;28;20480;-82
2022/11/20 09:08:28;;;;;;;4.63;3.67;;;;;;;5.74;94.39;95077.50;4964847;28;20200;-81
2022/11/20 09:10:54;;;;;;;5.13;3.00;;;;;;;5.81;94.52;95076.03;4968955;28;20664;-81
2022/11/20 09:13:20;;;;;;;11.30;8.33;;;;;;;5.75;95.50;95072.22;4956166;28;20212;-82
2022/11/20 09:15:46;;;;;;;15.83;11.40;;;;;;;5.87;95.09;95076.34;4973035;28;20563;-84
2022/11/20 09:18:11;;;;;;;8.00;4.33;;;;;;;5.71;96.52;95076.00;4971199;28;20193;-83
2022/11/20 09:20:36;;;;;;;4.67;4.07;;;;;;;5.54;97.11;95077.41;4967633;28;20266;-82
2022/11/20 09:23:02;;;;;;;3.97;3.30;;;;;;;5.49;97.34;95078.75;4974513;28;20303;-82
2022/11/20 09:25:27;;;;;;;3.63;3.33;;;;;;;5.60;97.26;95081.25;4972300;28;20219;-81
2022/11/20 09:27:59;;;;;;;3.30;3.00;;;;;;;5.72;96.57;95089.69;4960978;28;20200;-82
2022/11/20 09:30:24;;;;;;;3.57;3.27;;;;;;;5.76;96.84;95097.06;4941239;28;20575;-82
2022/11/20 09:32:49;;;;;;;4.67;3.70;;;;;;;5.72;96.85;95092.28;4961504;28;20216;-82
2022/11/20 09:35:15;;;;;;;5.37;4.70;;;;;;;5.55;97.38;95094.50;4966317;28;20188;-82
2022/11/20 09:37:40;;;;;;;7.77;6.20;;;;;;;5.66;97.66;95094.44;4974502;28;20207;-83
2022/11/20 09:40:06;;;;;;;4.10;3.80;;;;;;;5.73;96.36;95092.13;4973069;28;20193;-83
2022/11/20 09:42:49;;;;;;;9.10;6.63;;;;;;;5.71;94.61;95096.59;4962346;28;20216;-82
2022/11/20 09:45:38;;;;;;;91.43;46.60;;;;;;;5.90;94.18;95104.44;4955303;28;20231;-82
2022/11/20 09:48:14;;;;;;;25.30;13.83;;;;;;;5.84;94.67;95110.09;4957905;28;20201;-82
2022/11/20 09:50:49;;;;;;;16.27;9.17;;;;;;;5.58;95.87;95096.84;4961658;28;20657;-82
2022/11/20 09:53:51;;;;;;;42.13;25.73;;;;;;;5.81;95.26;95110.34;4948837;28;20205;-82
2022/11/20 09:56:17;;;;;;;6.60;6.00;;;;;;;5.56;96.15;95101.28;4943664;28;20197;-83
2022/11/20 09:58:45;;;;;;;2.00;1.80;;;;;;;5.64;95.54;95114.31;4974536;28;20193;-82
2022/11/20 10:01:14;;;;;;;2.30;2.10;;;;;;;5.61;95.78;95113.78;4972311;28;20276;-83
2022/11/20 10:03:49;;;;;;;2.80;2.40;;;;;;;5.59;95.77;95108.75;4957368;28;20216;-82
2022/11/20 10:06:17;;;;;;;2.23;2.03;;;;;;;5.71;95.84;95106.91;4959738;28;20247;-83
2022/11/20 10:08:55;;;;;;;2.33;2.10;;;;;;;5.56;96.81;95106.41;4966001;28;20189;-83
2022/11/20 10:11:33;;;;;;;3.50;3.20;;;;;;;5.50;97.42;95095.84;4957462;28;20184;-83
2022/11/20 10:14:18;;;;;;;4.13;3.73;;;;;;;5.64;97.04;95103.22;4970741;28;20247;-83
2022/11/20 10:17:05;;;;;;;8.63;6.23;;;;;;;5.52;97.44;95102.47;4966085;28;20251;-83
2022/11/20 10:19:40;;;;;;;102.97;55.50;;;;;;;5.44;96.95;95104.88;4959177;28;20291;-81
2022/11/20 10:22:29;;;;;;;42.23;32.63;;;;;;;5.58;97.75;95099.41;4984233;28;20667;-80
2022/11/20 10:25:11;;;;;;;6.43;5.93;;;;;;;5.85;96.77;95100.63;4958946;28;20879;-83
2022/11/20 10:27:46;;;;;;;5.30;3.63;;;;;;;5.87;95.75;95089.22;4974028;28;20184;-83
2022/11/20 10:30:14;;;;;;;6.67;4.47;;;;;;;5.98;95.53;95096.06;4958574;28;20557;-81
2022/11/20 10:32:42;;;;;;;4.93;4.17;;;;;;;5.89;94.69;95105.38;4970912;28;20196;-81
2022/11/20 10:35:13;;;;;;;4.80;4.30;;;;;;;6.06;94.80;95105.72;4966008;28;20185;-82
2022/11/20 10:37:42;;;;;;;5.53;4.10;;;;;;;5.94;95.36;95095.53;4974716;28;20199;-83
2022/11/20 10:40:08;;;;;;;8.17;4.60;;;;;;;5.85;95.63;95085.97;4957360;28;20199;-83
2022/11/20 10:42:42;;;;;;;7.80;4.63;;;;;;;5.55;96.73;95099.66;4967746;28;20201;-83
2022/11/20 10:45:31;;;;;;;6.90;4.90;;;;;;;5.77;96.53;95083.22;4988750;28;20199;-83
2022/11/20 10:48:07;;;;;;;7.13;4.43;;;;;;;5.96;95.96;95091.03;4977108;28;20299;-83
2022/11/20 10:50:35;;;;;;;7.40;3.67;;;;;;;6.09;94.47;95092.56;4965931;28;20616;-83
2022/11/20 10:53:26;;;;;;;7.30;3.90;;;;;;;6.34;93.87;95099.81;4968990;28;20988;-81
2022/11/20 10:56:05;;;;;;;6.47;4.40;;;;;;;6.53;93.02;95088.72;4971863;28;20255;-83
2022/11/20 10:58:50;;;;;;;7.07;4.57;;;;;;;6.64;91.52;95088.63;4959898;28;20188;-81
2022/11/20 11:01:18;;;;;;;5.43;3.93;;;;;;;6.68;90.77;95089.97;4951002;28;20188;-82
2022/11/20 11:03:44;;;;;;;2.77;2.53;;;;;;;6.68;88.97;95086.56;4964293;28;20212;-82
2022/11/20 11:06:29;;;;;;;3.73;2.53;;;;;;;6.79;87.44;95073.53;4960860;28;20189;-85
2022/11/20 11:08:57;;;;;;;7.27;3.77;;;;;;;6.42;88.12;95079.34;4965185;28;20604;-82
2022/11/20 11:11:33;;;;;;;3.87;2.80;;;;;;;6.21;88.27;95071.72;4973287;28;20209;-81
2022/11/20 11:14:13;;;;;;;10.60;3.50;;;;;;;6.16;88.88;95067.91;4973427;28;20180;-81
2022/11/20 11:16:56;;;;;;;6.00;3.57;;;;;;;6.23;88.71;95066.44;4966719;28;20188;-82
2022/11/20 11:19:22;;;;;;;4.93;3.73;;;;;;;6.31;87.98;95061.41;4958544;28;20300;-82
2022/11/20 11:21:49;;;;;;;5.83;4.07;;;;;;;6.40;87.88;95054.66;4962475;28;20244;-81
2022/11/20 11:24:22;;;;;;;6.23;4.50;;;;;;;6.54;87.95;95062.00;4971641;28;20207;-80
2022/11/20 11:27:06;;;;;;;6.50;5.20;;;;;;;6.52;87.88;95050.97;4975486;28;20193;-83
2022/11/20 11:29:32;;;;;;;6.70;4.50;;;;;;;6.22;86.80;95051.91;4949284;28;20561;-83
2022/11/20 11:32:08;;;;;;;7.10;3.60;;;;;;;6.20;85.60;95038.34;4945443;28;20198;-83
2022/11/20 11:34:33;;;;;;;9.33;4.60;;;;;;;6.18;86.50;95037.63;4962925;28;20606;-83
2022/11/20 11:37:00;;;;;;;4.30;3.03;;;;;;;6.24;86.89;95044.84;4959729;28;20205;-83
2022/11/20 11:39:27;;;;;;;5.97;3.80;;;;;;;6.23;87.16;95031.13;4958608;28;20185;-83
2022/11/20 11:41:52;;;;;;;3.37;2.37;;;;;;;6.31;85.11;95043.38;4964646;28;20224;-83
2022/11/20 11:47:09;;;;;;;4.73;2.53;;;;;;;6.10;84.74;95032.34;4973241;28;20187;-83
2022/11/20 11:49:35;;;;;;;5.83;2.23;;;;;;;6.01;85.04;95020.22;4963584;28;20724;-83
2022/11/20 11:52:13;;;;;;;4.73;3.80;;;;;;;6.12;84.55;95023.53;4974535;28;20213;-82
2022/11/20 11:54:51;;;;;;;5.47;1.70;;;;;;;6.11;83.61;95028.81;4974174;28;20271;-83
2022/11/20 11:57:28;;;;;;;5.03;2.23;;;;;;;6.28;84.02;95029.94;4974271;28;20223;-84